createdAt,value
2022-12-09T00:04:04.543Z,17.47
2022-12-09T00:09:15.860Z,16.20
2022-12-09T00:14:23.724Z,17.73
2022-12-09T00:19:32.098Z,18.00
2022-12-09T00:24:39.944Z,18.67
2022-12-09T00:29:47.666Z,18.40
2022-12-09T00:34:56.025Z,16.40
2022-12-09T00:40:06.199Z,17.13
2022-12-09T00:45:14.755Z,18.00
2022-12-09T00:50:23.612Z,16.77
2022-12-09T00:55:32.030Z,16.00
2022-12-09T01:00:40.048Z,16.03
2022-12-09T01:05:49.409Z,16.03
2022-12-09T01:10:57.422Z,15.17
2022-12-09T01:16:06.724Z,15.40
2022-12-09T01:21:14.666Z,15.67
2022-12-09T01:26:22.654Z,14.97
2022-12-09T01:31:30.828Z,15.80
2022-12-09T01:36:40.235Z,15.57
2022-12-09T01:41:50.932Z,15.20
2022-12-09T01:47:01.242Z,14.63
2022-12-09T01:52:15.816Z,14.57
2022-12-09T01:57:23.518Z,15.30
2022-12-09T02:02:33.799Z,14.87
2022-12-09T02:07:42.124Z,15.90
2022-12-09T02:13:11.752Z,14.27
2022-12-09T02:18:32.105Z,14.73
2022-12-09T02:23:41.949Z,15.73
2022-12-09T02:29:09.815Z,14.40
2022-12-09T02:34:23.932Z,15.43
2022-12-09T02:39:47.221Z,14.37
2022-12-09T02:44:54.817Z,14.23
2022-12-09T02:50:05.721Z,13.93
2022-12-09T02:55:15.839Z,15.13
2022-12-09T03:00:28.815Z,16.53
2022-12-09T03:06:00.172Z,16.10
2022-12-09T03:11:13.744Z,16.43
2022-12-09T03:16:30.445Z,15.97
2022-12-09T03:21:41.397Z,16.85
2022-12-09T03:26:49.703Z,19.13
2022-12-09T03:31:57.881Z,17.93
2022-12-09T03:37:05.508Z,17.87
2022-12-09T03:42:27.889Z,16.27
2022-12-09T03:47:35.625Z,19.20
2022-12-09T03:52:45.897Z,18.87
2022-12-09T03:57:55.998Z,19.17
2022-12-09T04:03:04.278Z,15.60
2022-12-09T04:08:12.897Z,15.70
2022-12-09T04:13:20.930Z,15.77
2022-12-09T04:18:29.683Z,16.17
2022-12-09T04:23:42.450Z,21.80
2022-12-09T04:28:46.313Z,17.57
2022-12-09T04:33:53.700Z,16.90
2022-12-09T04:39:01.798Z,17.60
2022-12-09T04:44:09.611Z,18.77
2022-12-09T04:49:18.146Z,20.10
2022-12-09T04:54:26.715Z,19.90
2022-12-09T04:59:34.994Z,20.30
2022-12-09T05:04:43.197Z,18.50
2022-12-09T05:09:52.305Z,18.83
2022-12-09T05:15:00.210Z,16.90
2022-12-09T05:20:09.790Z,19.23
2022-12-09T05:25:17.538Z,20.03
2022-12-09T05:30:25.106Z,18.07
2022-12-09T05:35:42.610Z,17.63
2022-12-09T05:40:44.895Z,18.57
2022-12-09T05:45:52.960Z,17.60
2022-12-09T05:51:05.493Z,21.30
2022-12-09T05:56:18.891Z,18.37
2022-12-09T06:01:28.682Z,17.47
2022-12-09T06:06:36.962Z,20.73
2022-12-09T06:11:44.982Z,24.27
2022-12-09T06:16:52.695Z,24.60
2022-12-09T06:22:01.997Z,23.00
2022-12-09T06:27:09.820Z,25.87
2022-12-09T06:32:18.153Z,24.03
2022-12-09T06:37:28.030Z,29.23
2022-12-09T06:42:35.742Z,24.93
2022-12-09T06:47:43.737Z,25.63
2022-12-09T06:52:52.011Z,23.80
2022-12-09T06:58:01.175Z,24.07
2022-12-09T07:03:09.196Z,23.67
2022-12-09T07:08:18.278Z,23.83
2022-12-09T07:13:26.455Z,26.17
2022-12-09T07:18:36.118Z,25.10
2022-12-09T07:23:44.246Z,25.33
2022-12-09T07:28:52.058Z,28.37
2022-12-09T07:34:01.052Z,27.53
2022-12-09T07:39:10.990Z,32.47
2022-12-09T07:44:18.737Z,25.57
2022-12-09T07:49:27.322Z,22.03
2022-12-09T07:54:35.565Z,20.20
2022-12-09T07:59:43.417Z,24.90
2022-12-09T08:04:51.308Z,30.10
2022-12-09T08:09:59.660Z,32.30
2022-12-09T08:15:09.104Z,31.90
2022-12-09T08:20:20.398Z,30.87
2022-12-09T08:25:27.391Z,38.50
2022-12-09T08:30:36.067Z,34.40
2022-12-09T08:35:44.522Z,30.17
2022-12-09T08:40:53.045Z,30.43
2022-12-09T08:46:01.740Z,29.37
2022-12-09T08:51:10.905Z,30.47
2022-12-09T08:56:20.748Z,30.60
2022-12-09T09:01:32.109Z,30.93
2022-12-09T09:06:42.578Z,31.10
2022-12-09T09:11:51.036Z,33.77
2022-12-09T09:16:59.312Z,32.90
2022-12-09T09:22:09.364Z,29.03
2022-12-09T09:27:20.609Z,27.03
2022-12-09T09:32:33.826Z,26.93
2022-12-09T09:37:42.488Z,25.20
2022-12-09T09:42:51.152Z,26.43
2022-12-09T09:48:03.772Z,23.60
2022-12-09T09:53:18.840Z,26.63
2022-12-09T09:58:45.084Z,23.03
2022-12-09T10:04:19.318Z,20.50
2022-12-09T10:09:41.780Z,17.10
2022-12-09T10:15:10.621Z,18.50
2022-12-09T10:20:26.546Z,23.80
2022-12-09T10:25:37.632Z,21.67
2022-12-09T10:30:46.179Z,21.73
2022-12-09T10:35:54.225Z,21.70
2022-12-09T10:41:08.008Z,23.10
2022-12-09T10:46:22.056Z,22.23
2022-12-09T10:51:35.614Z,22.53
2022-12-09T10:57:05.678Z,19.90
2022-12-09T11:02:21.964Z,17.07
2022-12-09T11:07:36.429Z,18.90
2022-12-09T11:12:48.039Z,18.90
2022-12-09T11:18:05.410Z,17.77
2022-12-09T11:23:17.295Z,18.17
2022-12-09T11:28:36.828Z,15.53
2022-12-09T11:33:56.942Z,14.40
2022-12-09T11:39:34.150Z,13.13
2022-12-09T11:44:51.119Z,14.50
2022-12-09T11:50:09.527Z,19.25
2022-12-09T11:55:21.556Z,16.40
2022-12-09T12:00:45.410Z,17.47
2022-12-09T12:05:55.318Z,19.77
2022-12-09T12:11:15.272Z,20.77
2022-12-09T12:16:39.841Z,20.27
2022-12-09T12:22:24.837Z,17.40
2022-12-09T12:27:51.960Z,17.33
2022-12-09T12:34:07.952Z,15.67
2022-12-09T12:38:54.134Z,16.73
2022-12-09T12:44:31.599Z,18.33
2022-12-09T12:50:06.110Z,21.40
2022-12-09T12:55:34.082Z,21.90
2022-12-09T13:00:48.243Z,19.53
2022-12-09T13:05:58.164Z,18.43
2022-12-09T13:11:14.892Z,15.03
2022-12-09T13:16:30.063Z,13.17
2022-12-09T13:21:38.222Z,12.13
2022-12-09T13:27:10.009Z,14.93
2022-12-09T13:32:42.458Z,15.20
2022-12-09T13:37:55.972Z,12.83
2022-12-09T13:43:07.647Z,13.00
2022-12-09T13:48:18.521Z,11.43
2022-12-09T13:53:35.599Z,12.80
2022-12-09T13:59:02.105Z,13.72
2022-12-09T14:04:15.541Z,14.03
2022-12-09T14:09:26.466Z,17.37
2022-12-09T14:14:38.970Z,23.27
2022-12-09T14:19:56.606Z,22.67
2022-12-09T14:25:32.640Z,26.30
2022-12-09T14:30:51.787Z,25.67
2022-12-09T14:36:08.917Z,17.60
2022-12-09T14:41:26.635Z,17.70
2022-12-09T14:46:35.944Z,18.63
2022-12-09T14:51:58.434Z,18.80
2022-12-09T14:57:10.633Z,18.97
2022-12-09T15:02:26.235Z,20.47
2022-12-09T15:07:35.812Z,21.77
2022-12-09T15:12:45.984Z,24.70
2022-12-09T15:17:59.233Z,27.77
2022-12-09T15:23:38.321Z,25.67
2022-12-09T15:28:50.274Z,34.33
2022-12-09T15:33:59.911Z,31.07
2022-12-09T15:39:11.516Z,34.57
2022-12-09T15:44:20.563Z,31.70
2022-12-09T15:49:30.780Z,32.10
2022-12-09T15:54:40.593Z,30.80
2022-12-09T15:59:55.849Z,37.53
2022-12-09T16:05:04.434Z,34.73
2022-12-09T16:10:16.742Z,35.57
2022-12-09T16:15:28.447Z,35.03
2022-12-09T16:20:43.953Z,32.83
2022-12-09T16:25:52.352Z,32.57
2022-12-09T16:31:05.665Z,34.90
2022-12-09T16:36:19.727Z,32.87
2022-12-09T16:41:31.216Z,36.40
2022-12-09T16:46:41.292Z,36.57
2022-12-09T16:51:48.990Z,38.47
2022-12-09T16:56:59.400Z,41.47
2022-12-09T17:02:13.536Z,43.30
2022-12-09T17:07:21.350Z,38.27
2022-12-09T17:12:30.508Z,44.87
2022-12-09T17:17:41.731Z,44.83
2022-12-09T17:22:52.172Z,40.80
2022-12-09T17:28:05.325Z,41.67
2022-12-09T17:33:13.767Z,44.43
2022-12-09T17:38:22.228Z,47.70
2022-12-09T17:43:36.131Z,44.33
2022-12-09T17:48:43.908Z,45.63
2022-12-09T17:53:56.283Z,40.73
2022-12-09T17:59:08.594Z,45.47
2022-12-09T18:04:17.210Z,48.03
2022-12-09T18:09:25.066Z,49.87
2022-12-09T18:14:33.057Z,47.37
2022-12-09T18:19:44.023Z,44.40
2022-12-09T18:24:52.638Z,45.57
2022-12-09T18:30:03.154Z,55.80
2022-12-09T18:35:11.784Z,44.37
2022-12-09T18:40:21.573Z,47.73
2022-12-09T18:45:29.360Z,47.97
2022-12-09T18:50:38.596Z,53.53
2022-12-09T18:55:46.136Z,45.40
2022-12-09T19:00:55.148Z,46.83
2022-12-09T19:06:03.117Z,48.27
2022-12-09T19:11:12.590Z,49.87
2022-12-09T19:16:20.216Z,47.10
2022-12-09T19:21:28.063Z,47.63
2022-12-09T19:26:37.686Z,47.83
2022-12-09T19:31:49.258Z,47.60
2022-12-09T19:37:02.313Z,51.40
2022-12-09T19:42:13.504Z,48.57
2022-12-09T19:47:22.251Z,45.97
2022-12-09T19:52:31.637Z,49.80
2022-12-09T19:57:39.423Z,50.80
2022-12-09T20:02:47.386Z,51.20
2022-12-09T20:07:56.117Z,49.17
2022-12-09T20:13:05.551Z,52.90
2022-12-09T20:18:14.898Z,58.13
2022-12-09T20:23:23.638Z,56.43
2022-12-09T20:28:32.431Z,62.60
2022-12-09T20:33:41.358Z,60.93
2022-12-09T20:38:53.345Z,60.90
2022-12-09T20:44:01.092Z,62.70
2022-12-09T20:49:11.934Z,53.50
2022-12-09T20:54:20.504Z,58.23
2022-12-09T20:59:28.362Z,62.53
2022-12-09T21:04:37.525Z,58.53
2022-12-09T21:09:46.659Z,64.00
2022-12-09T21:14:55.692Z,59.83
2022-12-09T21:20:03.613Z,56.53
2022-12-09T21:25:15.757Z,54.27
2022-12-09T21:30:24.804Z,57.30
2022-12-09T21:35:37.816Z,56.50
2022-12-09T21:40:47.048Z,53.73
2022-12-09T21:45:55.114Z,58.80
2022-12-09T21:51:03.687Z,58.77
2022-12-09T21:56:22.199Z,59.67
2022-12-09T22:01:32.547Z,61.00
2022-12-09T22:06:40.391Z,54.90
2022-12-09T22:11:48.226Z,52.40
2022-12-09T22:16:56.037Z,60.70
2022-12-09T22:22:09.157Z,50.07
2022-12-09T22:27:16.392Z,52.47
2022-12-09T22:32:25.121Z,53.23
2022-12-09T22:37:43.533Z,54.00
2022-12-09T22:42:46.302Z,52.53
2022-12-09T22:47:56.217Z,52.57
2022-12-09T22:53:05.105Z,62.37
2022-12-09T22:58:14.356Z,56.27
2022-12-09T23:03:22.398Z,56.43
2022-12-09T23:08:31.455Z,56.13
2022-12-09T23:13:41.352Z,59.17
2022-12-09T23:18:48.814Z,52.53
2022-12-09T23:23:58.170Z,50.77
2022-12-09T23:29:06.787Z,55.80
2022-12-09T23:34:14.911Z,51.30
2022-12-09T23:39:23.462Z,53.83
2022-12-09T23:44:31.442Z,60.90
2022-12-09T23:49:41.970Z,62.17
2022-12-09T23:54:49.842Z,61.40
2022-12-09T23:59:59.369Z,58.60
